createdAt,value
2018-04-15T00:02:17.485Z,10.70
2018-04-15T00:04:44.940Z,10.70
2018-04-15T00:07:12.401Z,10.70
2018-04-15T00:09:39.885Z,10.70
2018-04-15T00:12:07.344Z,10.70
2018-04-15T00:14:35.585Z,10.70
2018-04-15T00:17:03.060Z,10.70
2018-04-15T00:19:30.526Z,10.70
2018-04-15T00:21:57.992Z,10.70
2018-04-15T00:24:25.462Z,10.70
2018-04-15T00:26:53.689Z,10.70
2018-04-15T00:29:21.941Z,10.70
2018-04-15T00:31:49.431Z,10.80
2018-04-15T00:34:16.865Z,10.80
2018-04-15T00:36:44.339Z,10.80
2018-04-15T00:39:11.866Z,10.90
2018-04-15T00:41:39.337Z,10.80
2018-04-15T00:44:06.823Z,10.80
2018-04-15T00:46:35.050Z,10.80
2018-04-15T00:49:02.520Z,10.80
2018-04-15T00:51:29.982Z,10.80
2018-04-15T00:54:09.209Z,10.80
2018-04-15T00:56:36.676Z,10.80
2018-04-15T00:59:04.150Z,10.70
2018-04-15T01:01:31.611Z,10.80
2018-04-15T01:03:59.087Z,10.80
2018-04-15T01:06:26.555Z,10.70
2018-04-15T01:08:54.801Z,10.70
2018-04-15T01:11:22.320Z,10.70
2018-04-15T01:13:49.780Z,10.70
2018-04-15T01:16:17.252Z,10.70
2018-04-15T01:18:44.721Z,10.70
2018-04-15T01:21:12.192Z,10.70
2018-04-15T01:23:39.685Z,10.70
2018-04-15T01:26:07.168Z,10.70
2018-04-15T01:28:34.645Z,10.70
2018-04-15T01:31:02.125Z,10.70
2018-04-15T01:33:29.593Z,10.70
2018-04-15T01:35:57.843Z,10.70
2018-04-15T01:38:25.320Z,10.70
2018-04-15T01:40:53.897Z,10.80
2018-04-15T01:43:21.352Z,10.80
2018-04-15T01:45:48.817Z,10.80
2018-04-15T01:48:16.279Z,10.80
2018-04-15T01:50:44.508Z,10.80
2018-04-15T01:53:13.883Z,10.80
2018-04-15T01:55:41.357Z,10.90
2018-04-15T01:58:08.837Z,10.80
2018-04-15T02:00:36.296Z,10.80
2018-04-15T02:03:03.775Z,10.90
2018-04-15T02:05:31.236Z,10.90
2018-04-15T02:07:59.473Z,11.00
2018-04-15T02:10:26.948Z,11.00
2018-04-15T02:12:54.418Z,11.00
2018-04-15T02:15:21.885Z,11.00
2018-04-15T02:17:50.996Z,11.00
2018-04-15T02:20:18.457Z,11.00
2018-04-15T02:22:45.930Z,11.00
2018-04-15T02:25:13.589Z,11.00
2018-04-15T02:27:41.075Z,11.00
2018-04-15T02:30:08.537Z,11.00
2018-04-15T02:32:36.024Z,11.00
2018-04-15T02:35:03.492Z,11.00
2018-04-15T02:37:31.740Z,11.00
2018-04-15T02:39:59.208Z,11.00
2018-04-15T02:42:26.696Z,11.00
2018-04-15T02:44:54.938Z,11.00
2018-04-15T02:47:22.402Z,11.00
2018-04-15T02:49:49.882Z,11.00
2018-04-15T02:52:17.357Z,11.00
2018-04-15T02:54:44.816Z,10.90
2018-04-15T02:57:12.280Z,10.80
2018-04-15T02:59:39.763Z,10.80
2018-04-15T03:02:08.012Z,10.80
2018-04-15T03:04:35.479Z,10.90
2018-04-15T03:07:02.955Z,10.90
2018-04-15T03:09:30.427Z,10.90
2018-04-15T03:11:57.896Z,10.90
2018-04-15T03:14:26.140Z,10.80
2018-04-15T03:16:53.611Z,10.80
2018-04-15T03:19:21.072Z,10.80
2018-04-15T03:21:48.548Z,10.80
2018-04-15T03:24:16.797Z,10.80
2018-04-15T03:26:44.257Z,10.80
2018-04-15T03:29:11.731Z,10.80
2018-04-15T03:31:39.957Z,10.80
2018-04-15T03:34:07.425Z,10.80
2018-04-15T03:36:34.903Z,10.80
2018-04-15T03:39:02.361Z,10.80
2018-04-15T03:41:29.865Z,10.80
2018-04-15T03:43:57.332Z,10.80
2018-04-15T03:46:24.787Z,10.80
2018-04-15T03:48:52.258Z,10.80
2018-04-15T03:51:19.716Z,10.90
2018-04-15T03:53:47.180Z,10.80
2018-04-15T03:56:14.652Z,10.90
2018-04-15T03:58:42.133Z,10.90
2018-04-15T04:01:10.377Z,10.90
2018-04-15T04:03:38.626Z,10.90
2018-04-15T04:06:06.092Z,10.90
2018-04-15T04:08:33.574Z,10.90
2018-04-15T04:11:01.049Z,10.90
2018-04-15T04:13:29.275Z,10.90
2018-04-15T04:15:56.747Z,10.90
2018-04-15T04:18:45.609Z,10.90
2018-04-15T04:21:36.707Z,10.90
2018-04-15T04:24:16.071Z,10.90
2018-04-15T04:26:43.539Z,10.90
2018-04-15T04:29:11.773Z,10.90
2018-04-15T04:31:39.236Z,10.90
2018-04-15T04:34:06.712Z,10.90
2018-04-15T04:36:34.849Z,10.90
2018-04-15T04:39:02.321Z,10.90
2018-04-15T04:41:29.801Z,10.90
2018-04-15T04:43:57.283Z,11.00
2018-04-15T04:46:25.500Z,11.00
2018-04-15T04:48:52.974Z,11.00
2018-04-15T04:51:20.446Z,11.00
2018-04-15T04:53:47.912Z,10.90
2018-04-15T04:56:15.389Z,11.00
2018-04-15T04:58:43.629Z,10.90
2018-04-15T05:01:11.121Z,10.90
2018-04-15T05:03:39.377Z,10.90
2018-04-15T05:06:06.835Z,10.90
2018-04-15T05:08:34.320Z,10.90
2018-04-15T05:11:02.551Z,11.00
2018-04-15T05:13:30.020Z,11.00
2018-04-15T05:15:57.485Z,11.00
2018-04-15T05:18:25.804Z,11.00
2018-04-15T05:20:53.308Z,11.00
2018-04-15T05:23:20.734Z,11.00
2018-04-15T05:25:48.204Z,11.00
2018-04-15T05:28:15.668Z,10.90
2018-04-15T05:30:43.141Z,11.00
2018-04-15T05:33:10.665Z,11.00
2018-04-15T05:35:38.145Z,11.00
2018-04-15T05:38:05.612Z,11.00
2018-04-15T05:40:33.096Z,11.00
2018-04-15T05:43:00.560Z,11.00
2018-04-15T05:45:28.034Z,11.00
2018-04-15T05:47:55.558Z,11.10
2018-04-15T05:50:22.984Z,11.00
2018-04-15T05:52:50.461Z,11.10
2018-04-15T05:55:18.709Z,11.10
2018-04-15T05:57:46.181Z,11.00
2018-04-15T06:00:14.392Z,11.10
2018-04-15T06:02:41.875Z,11.10
2018-04-15T06:05:09.335Z,11.10
2018-04-15T06:07:36.797Z,11.10
2018-04-15T06:10:04.291Z,11.10
2018-04-15T06:12:31.755Z,11.20
2018-04-15T06:15:00.002Z,11.20
2018-04-15T06:17:27.485Z,11.20
2018-04-15T06:19:55.733Z,11.20
2018-04-15T06:22:23.209Z,11.20
2018-04-15T06:24:50.663Z,11.30
2018-04-15T06:27:18.119Z,11.30
2018-04-15T06:29:46.373Z,11.40
2018-04-15T06:32:13.903Z,11.40
2018-04-15T06:34:41.367Z,11.40
2018-04-15T06:37:08.850Z,11.50
2018-04-15T06:39:36.316Z,11.50
2018-04-15T06:42:03.788Z,11.60
2018-04-15T06:44:31.248Z,11.60
2018-04-15T06:47:00.145Z,11.70
2018-04-15T06:49:28.395Z,11.70
2018-04-15T06:51:55.883Z,11.70
2018-04-15T06:54:24.112Z,11.80
2018-04-15T06:56:51.593Z,11.80
2018-04-15T06:59:19.048Z,11.90
2018-04-15T07:01:46.530Z,12.00
2018-04-15T07:04:14.757Z,12.10
2018-04-15T07:06:42.236Z,12.00
2018-04-15T07:09:09.708Z,12.10
2018-04-15T07:11:37.932Z,12.20
2018-04-15T07:14:05.433Z,12.20
2018-04-15T07:16:33.695Z,12.30
2018-04-15T07:19:01.936Z,12.30
2018-04-15T07:21:29.413Z,12.40
2018-04-15T07:23:56.905Z,12.50
2018-04-15T07:26:25.137Z,12.60
2018-04-15T07:28:52.629Z,12.60
2018-04-15T07:31:20.104Z,12.70
2018-04-15T07:33:48.348Z,12.80
2018-04-15T07:36:15.861Z,12.70
2018-04-15T07:38:43.328Z,12.80
2018-04-15T07:41:10.804Z,12.80
2018-04-15T07:43:38.279Z,13.00
2018-04-15T07:46:05.752Z,13.10
2018-04-15T07:48:33.989Z,13.50
2018-04-15T07:51:01.456Z,13.50
2018-04-15T07:53:28.917Z,13.80
2018-04-15T07:55:56.407Z,13.80
2018-04-15T07:58:24.640Z,13.80
2018-04-15T08:00:52.108Z,13.80
2018-04-15T08:03:21.168Z,13.70
2018-04-15T08:05:48.632Z,13.70
2018-04-15T08:08:16.110Z,13.80
2018-04-15T08:10:43.583Z,13.90
2018-04-15T08:13:11.080Z,13.90
2018-04-15T08:15:38.546Z,14.10
2018-04-15T08:18:06.005Z,14.10
2018-04-15T08:20:34.432Z,14.30
2018-04-15T08:23:01.916Z,14.40
2018-04-15T08:25:30.139Z,14.30
2018-04-15T08:27:57.620Z,14.30
2018-04-15T08:30:25.087Z,14.40
2018-04-15T08:32:52.540Z,14.60
2018-04-15T08:35:20.026Z,14.80
2018-04-15T08:37:47.493Z,14.80
2018-04-15T08:40:14.984Z,14.80
2018-04-15T08:42:42.472Z,14.80
2018-04-15T08:45:10.725Z,15.00
2018-04-15T08:47:38.194Z,14.90
2018-04-15T08:50:05.668Z,15.10
2018-04-15T08:52:33.904Z,15.20
2018-04-15T08:55:01.379Z,15.20
2018-04-15T08:57:28.857Z,15.30
2018-04-15T08:59:57.075Z,15.60
2018-04-15T09:02:24.556Z,15.60
2018-04-15T09:04:52.236Z,15.50
2018-04-15T09:07:19.743Z,15.70
2018-04-15T09:09:47.244Z,15.70
2018-04-15T09:12:14.671Z,15.80
2018-04-15T09:14:42.143Z,15.80
2018-04-15T09:17:09.628Z,16.10
2018-04-15T09:19:37.878Z,16.30
2018-04-15T09:22:05.340Z,16.30
2018-04-15T09:24:32.816Z,16.70
2018-04-15T09:27:02.860Z,16.70
2018-04-15T09:29:30.344Z,16.70
2018-04-15T09:31:57.804Z,16.50
2018-04-15T09:34:25.292Z,16.50
2018-04-15T09:36:52.743Z,16.60
2018-04-15T09:39:20.233Z,16.80
2018-04-15T09:41:48.469Z,16.70
2018-04-15T09:44:15.948Z,16.70
2018-04-15T09:46:43.515Z,17.20
2018-04-15T09:49:11.785Z,17.60
2018-04-15T09:51:40.012Z,17.50
2018-04-15T09:54:07.468Z,17.50
2018-04-15T09:56:34.940Z,17.30
2018-04-15T09:59:02.399Z,17.50
2018-04-15T10:01:29.853Z,17.80
2018-04-15T10:03:57.335Z,17.90
2018-04-15T10:06:24.791Z,17.60
2018-04-15T10:08:52.265Z,17.90
2018-04-15T10:11:20.501Z,18.40
2018-04-15T10:13:47.961Z,18.40
2018-04-15T10:16:15.441Z,18.60
2018-04-15T10:18:43.872Z,18.70
2018-04-15T10:21:11.377Z,18.60
2018-04-15T10:23:38.833Z,18.40
2018-04-15T10:26:06.297Z,18.70
2018-04-15T10:28:33.772Z,18.80
2018-04-15T10:31:01.998Z,18.60
2018-04-15T10:33:29.465Z,18.50
2018-04-15T10:35:56.952Z,18.70
2018-04-15T10:38:25.207Z,19.00
2018-04-15T10:40:52.680Z,19.00
2018-04-15T10:43:20.190Z,19.00
2018-04-15T10:45:47.652Z,18.90
2018-04-15T10:48:15.194Z,18.60
2018-04-15T10:50:42.702Z,18.90
2018-04-15T10:53:10.157Z,19.10
2018-04-15T10:55:37.628Z,19.20
2018-04-15T10:58:05.919Z,18.60
2018-04-15T11:00:33.345Z,18.60
2018-04-15T11:03:00.813Z,18.60
2018-04-15T11:05:29.081Z,18.50
2018-04-15T11:07:56.544Z,18.50
2018-04-15T11:10:24.769Z,18.90
2018-04-15T11:12:53.069Z,18.90
2018-04-15T11:15:20.579Z,19.00
2018-04-15T11:17:48.150Z,19.00
2018-04-15T11:20:15.640Z,18.90
2018-04-15T11:22:43.930Z,18.40
2018-04-15T11:25:11.426Z,18.40
2018-04-15T11:27:40.143Z,18.60
2018-04-15T11:30:07.629Z,18.50
2018-04-15T11:32:35.109Z,18.30
2018-04-15T11:35:02.604Z,18.30
2018-04-15T11:37:30.073Z,18.50
2018-04-15T11:39:57.574Z,18.70
2018-04-15T11:42:25.820Z,19.00
2018-04-15T11:44:53.297Z,19.00
2018-04-15T11:47:21.556Z,19.40
2018-04-15T11:49:49.028Z,19.40
2018-04-15T11:52:16.481Z,19.30
2018-04-15T11:54:43.979Z,19.10
2018-04-15T11:57:11.442Z,18.90
2018-04-15T11:59:38.908Z,19.10
2018-04-15T12:02:06.368Z,19.30
2018-04-15T12:04:34.308Z,19.60
2018-04-15T12:07:01.769Z,19.50
2018-04-15T12:09:29.255Z,19.60
2018-04-15T12:16:09.956Z,19.20
2018-04-15T12:18:37.446Z,19.30
2018-04-15T12:21:04.912Z,19.10
2018-04-15T12:23:33.157Z,19.10
2018-04-15T12:26:00.896Z,19.10
2018-04-15T12:28:28.378Z,19.00
2018-04-15T12:30:55.857Z,19.10
2018-04-15T12:33:23.328Z,19.00
2018-04-15T12:35:51.607Z,18.80
2018-04-15T12:38:19.053Z,18.80
2018-04-15T12:40:47.301Z,18.70
2018-04-15T12:43:14.769Z,18.60
2018-04-15T12:45:42.224Z,18.40
2018-04-15T12:48:09.701Z,18.30
2018-04-15T12:50:37.186Z,18.30
2018-04-15T12:53:04.660Z,18.30
2018-04-15T12:55:32.133Z,18.40
2018-04-15T12:57:59.680Z,18.30
2018-04-15T13:00:27.156Z,18.20
2018-04-15T13:02:54.642Z,18.30
2018-04-15T13:05:22.127Z,18.30
2018-04-15T13:07:49.616Z,18.40
2018-04-15T13:10:17.104Z,18.20
2018-04-15T13:12:44.569Z,18.40
2018-04-15T13:15:12.278Z,18.50
2018-04-15T13:17:39.736Z,18.40
2018-04-15T13:20:07.221Z,18.60
2018-04-15T13:22:34.695Z,18.80
2018-04-15T13:25:02.224Z,18.90
2018-04-15T13:27:29.700Z,19.00
2018-04-15T13:29:57.161Z,18.70
2018-04-15T13:32:24.705Z,18.80
2018-04-15T13:34:52.398Z,18.80
2018-04-15T13:37:19.875Z,18.80
2018-04-15T13:39:48.105Z,18.70
2018-04-15T13:42:15.599Z,18.70
2018-04-15T13:44:43.135Z,18.50
2018-04-15T13:47:10.596Z,18.60
2018-04-15T13:49:38.072Z,18.70
2018-04-15T13:52:06.320Z,18.40
2018-04-15T13:54:33.780Z,18.40
2018-04-15T13:57:01.269Z,18.40
2018-04-15T13:59:29.496Z,18.10
2018-04-15T14:01:56.953Z,18.10
2018-04-15T14:04:24.429Z,18.00
2018-04-15T14:06:51.909Z,18.00
2018-04-15T14:09:20.251Z,17.80
2018-04-15T14:11:48.536Z,17.60
2018-04-15T14:14:16.059Z,17.60
2018-04-15T14:16:43.616Z,17.60
2018-04-15T14:19:11.121Z,17.50
2018-04-15T14:21:38.551Z,17.30
2018-04-15T14:24:06.078Z,17.50
2018-04-15T14:26:33.541Z,17.50
2018-04-15T14:29:01.042Z,17.50
2018-04-15T14:31:28.509Z,17.50
2018-04-15T14:33:57.100Z,17.30
2018-04-15T14:36:25.351Z,17.20
2018-04-15T14:38:52.805Z,17.20
2018-04-15T14:41:20.288Z,17.10
2018-04-15T14:43:48.508Z,17.20
2018-04-15T14:46:16.511Z,17.10
2018-04-15T14:48:43.974Z,17.10
2018-04-15T14:51:11.426Z,17.40
2018-04-15T14:53:38.873Z,17.80
2018-04-15T14:56:06.341Z,18.00
2018-04-15T14:58:33.813Z,18.20
2018-04-15T15:01:02.032Z,18.80
2018-04-15T15:03:29.544Z,18.80
2018-04-15T15:05:57.785Z,19.10
2018-04-15T15:08:25.270Z,19.10
2018-04-15T15:10:52.740Z,19.30
2018-04-15T15:13:20.960Z,19.50
2018-04-15T15:15:48.518Z,19.50
2018-04-15T15:18:15.978Z,19.70
2018-04-15T15:20:43.429Z,19.90
2018-04-15T15:23:10.898Z,19.80
2018-04-15T15:25:38.353Z,19.70
2018-04-15T15:28:05.829Z,19.70
2018-04-15T15:30:33.289Z,19.70
2018-04-15T15:33:00.798Z,19.70
2018-04-15T15:35:28.289Z,19.80
2018-04-15T15:37:55.776Z,19.80
2018-04-15T15:40:24.022Z,19.30
2018-04-15T15:42:51.479Z,19.30
2018-04-15T15:45:18.951Z,19.30
2018-04-15T15:47:46.413Z,19.20
2018-04-15T15:50:13.889Z,19.20
2018-04-15T15:52:42.133Z,19.10
2018-04-15T15:55:09.600Z,19.10
2018-04-15T15:57:37.056Z,19.10
2018-04-15T16:00:04.502Z,19.10
2018-04-15T16:02:31.975Z,19.00
2018-04-15T16:05:00.204Z,18.70
2018-04-15T16:07:27.677Z,18.70
2018-04-15T16:09:55.129Z,18.60
2018-04-15T16:12:23.235Z,18.40
2018-04-15T16:14:50.705Z,18.50
2018-04-15T16:17:18.916Z,18.40
2018-04-15T16:19:46.388Z,18.40
2018-04-15T16:22:13.865Z,18.00
2018-04-15T16:24:41.345Z,18.00
2018-04-15T16:27:09.577Z,17.80
2018-04-15T16:29:37.041Z,17.80
2018-04-15T16:32:04.497Z,17.70
2018-04-15T16:34:32.055Z,17.70
2018-04-15T16:36:59.524Z,17.60
2018-04-15T16:39:27.000Z,17.50
2018-04-15T16:41:55.232Z,17.60
2018-04-15T16:44:22.707Z,17.50
2018-04-15T16:46:50.180Z,17.60
2018-04-15T16:49:17.636Z,17.50
2018-04-15T16:51:45.111Z,17.30
2018-04-15T16:54:13.376Z,16.70
2018-04-15T16:56:40.855Z,16.70
2018-04-15T16:59:09.081Z,16.30
2018-04-15T17:01:36.812Z,16.30
2018-04-15T17:04:04.300Z,16.20
2018-04-15T17:06:31.782Z,16.20
2018-04-15T17:08:59.254Z,16.10
2018-04-15T17:11:27.488Z,15.90
2018-04-15T17:13:54.957Z,15.90
2018-04-15T17:16:22.425Z,15.90
2018-04-15T17:18:49.880Z,15.90
2018-04-15T17:21:17.372Z,16.00
2018-04-15T17:23:44.854Z,16.10
2018-04-15T17:26:12.379Z,15.90
2018-04-15T17:28:40.627Z,15.80
2018-04-15T17:31:08.080Z,15.80
2018-04-15T17:33:35.537Z,15.80
2018-04-15T17:36:03.036Z,15.90
2018-04-15T17:38:30.500Z,16.00
2018-04-15T17:40:58.040Z,15.90
2018-04-15T17:43:25.486Z,15.90
2018-04-15T17:45:53.242Z,15.90
2018-04-15T17:48:20.698Z,15.90
2018-04-15T17:50:48.941Z,15.90
2018-04-15T17:53:16.419Z,15.90
2018-04-15T17:55:43.888Z,15.80
2018-04-15T17:58:12.109Z,15.80
2018-04-15T18:00:39.609Z,15.80
2018-04-15T18:03:08.580Z,15.80
2018-04-15T18:05:36.040Z,15.80
2018-04-15T18:08:04.322Z,15.70
2018-04-15T18:10:31.784Z,15.70
2018-04-15T18:12:59.261Z,15.70
2018-04-15T18:15:27.565Z,15.60
2018-04-15T18:17:55.901Z,15.60
2018-04-15T18:20:23.375Z,15.60
2018-04-15T18:22:51.613Z,15.50
2018-04-15T18:25:19.100Z,15.50
2018-04-15T18:27:47.373Z,15.50
2018-04-15T18:30:14.863Z,15.50
2018-04-15T18:32:42.349Z,15.50
2018-04-15T18:35:09.808Z,15.50
2018-04-15T18:37:38.069Z,15.30
2018-04-15T18:40:05.533Z,15.30
2018-04-15T18:42:33.001Z,15.30
2018-04-15T18:45:00.529Z,15.20
2018-04-15T18:47:28.738Z,15.10
2018-04-15T18:49:56.256Z,15.10
2018-04-15T18:52:23.690Z,15.10
2018-04-15T18:54:51.929Z,15.00
2018-04-15T18:57:19.384Z,14.90
2018-04-15T18:59:46.873Z,14.90
2018-04-15T19:02:15.105Z,14.90
2018-04-15T19:04:42.597Z,14.90
2018-04-15T19:07:10.079Z,14.80
2018-04-15T19:09:37.566Z,14.80
2018-04-15T19:12:05.612Z,14.80
2018-04-15T19:14:33.837Z,14.80
2018-04-15T19:17:01.320Z,14.80
2018-04-15T19:19:29.548Z,14.70
2018-04-15T19:21:57.020Z,14.70
2018-04-15T19:24:24.489Z,14.70
2018-04-15T19:26:51.953Z,14.70
2018-04-15T19:29:19.688Z,14.60
2018-04-15T19:31:47.249Z,14.60
2018-04-15T19:34:15.425Z,14.50
2018-04-15T19:36:43.757Z,14.60
2018-04-15T19:39:11.230Z,14.50
2018-04-15T19:41:39.965Z,14.50
2018-04-15T19:44:07.461Z,14.50
2018-04-15T19:46:35.842Z,14.50
2018-04-15T19:49:03.358Z,14.50
2018-04-15T19:51:30.858Z,14.50
2018-04-15T19:53:58.331Z,14.40
2018-04-15T19:56:25.810Z,14.50
2018-04-15T19:58:53.276Z,14.40
2018-04-15T20:01:20.752Z,14.40
2018-04-15T20:03:48.245Z,14.30
2018-04-15T20:06:15.716Z,14.30
2018-04-15T20:08:43.200Z,14.30
2018-04-15T20:11:10.772Z,14.20
2018-04-15T20:13:38.185Z,14.20
2018-04-15T20:16:05.664Z,14.20
2018-04-15T20:18:33.178Z,14.20
2018-04-15T20:21:01.407Z,14.10
2018-04-15T20:23:28.938Z,14.10
2018-04-15T20:25:56.417Z,14.10
2018-04-15T20:28:24.700Z,14.00
2018-04-15T20:30:52.173Z,14.00
2018-04-15T20:33:19.640Z,14.00
2018-04-15T20:35:47.096Z,14.00
2018-04-15T20:38:15.336Z,13.90
2018-04-15T20:40:43.577Z,13.90
2018-04-15T20:43:11.032Z,13.90
2018-04-15T20:45:38.503Z,13.90
2018-04-15T20:48:05.975Z,13.90
2018-04-15T20:50:33.433Z,13.80
2018-04-15T20:53:00.905Z,13.80
2018-04-15T20:55:28.381Z,13.80
2018-04-15T20:57:55.834Z,13.80
2018-04-15T21:00:23.307Z,13.80
2018-04-15T21:02:51.530Z,13.80
2018-04-15T21:05:18.992Z,13.80
2018-04-15T21:07:46.472Z,13.80
2018-04-15T21:10:14.300Z,13.80
2018-04-15T21:12:41.769Z,13.80
2018-04-15T21:15:09.235Z,13.70
2018-04-15T21:17:36.709Z,13.70
2018-04-15T21:20:04.173Z,13.70
2018-04-15T21:22:31.636Z,13.70
2018-04-15T21:24:59.114Z,13.70
2018-04-15T21:27:27.341Z,13.70
2018-04-15T21:29:54.812Z,13.70
2018-04-15T21:32:22.288Z,13.70
2018-04-15T21:34:50.521Z,13.70
2018-04-15T21:37:17.996Z,13.70
2018-04-15T21:39:45.466Z,13.70
2018-04-15T21:42:12.937Z,13.70
2018-04-15T21:44:41.164Z,13.70
2018-04-15T21:47:08.641Z,13.70
2018-04-15T21:49:36.097Z,13.70
2018-04-15T21:52:03.559Z,13.70
2018-04-15T21:54:31.048Z,13.60
2018-04-15T21:56:59.286Z,13.60
2018-04-15T21:59:26.752Z,13.60
2018-04-15T22:01:54.229Z,13.60
2018-04-15T22:04:22.494Z,13.60
2018-04-15T22:06:49.944Z,13.60
2018-04-15T22:09:17.408Z,13.60
2018-04-15T22:11:56.749Z,13.60
2018-04-15T22:14:24.972Z,13.60
2018-04-15T22:16:52.476Z,13.60
2018-04-15T22:19:19.928Z,13.60
2018-04-15T22:21:47.402Z,13.60
2018-04-15T22:24:15.624Z,13.50
2018-04-15T22:26:43.093Z,13.50
2018-04-15T22:29:10.571Z,13.50
2018-04-15T22:31:38.028Z,13.50
2018-04-15T22:34:05.492Z,13.40
2018-04-15T22:36:32.953Z,13.40
2018-04-15T22:39:01.173Z,13.50
2018-04-15T22:41:28.652Z,13.50
2018-04-15T22:43:56.883Z,13.50
2018-04-15T22:46:25.098Z,13.50
2018-04-15T22:48:56.392Z,13.50
2018-04-15T22:51:24.616Z,13.50
2018-04-15T22:53:52.077Z,13.50
2018-04-15T22:56:19.724Z,13.40
2018-04-15T22:58:47.181Z,13.40
2018-04-15T23:01:14.650Z,13.40
2018-04-15T23:03:42.218Z,13.30
2018-04-15T23:06:09.671Z,13.30
2018-04-15T23:08:37.121Z,13.20
2018-04-15T23:11:04.581Z,13.20
2018-04-15T23:13:32.046Z,13.10
2018-04-15T23:15:59.508Z,13.10
2018-04-15T23:18:26.988Z,13.10
2018-04-15T23:20:55.226Z,13.10
2018-04-15T23:23:22.705Z,13.10
2018-04-15T23:25:51.032Z,13.10
2018-04-15T23:28:18.481Z,13.00
2018-04-15T23:30:45.951Z,13.00
2018-04-15T23:33:13.416Z,13.00
2018-04-15T23:35:40.874Z,13.00
2018-04-15T23:38:08.333Z,12.90
2018-04-15T23:40:35.792Z,13.00
2018-04-15T23:43:03.261Z,12.90
2018-04-15T23:45:30.746Z,13.00
2018-04-15T23:47:58.202Z,12.90
2018-04-15T23:50:25.659Z,12.90
2018-04-15T23:52:53.884Z,12.80
2018-04-15T23:55:21.349Z,12.80
2018-04-15T23:57:48.816Z,12.80
